Time;durP1;ratioP1;P1;durP2;ratioP2;P2;SDS_P1;SDS_P2;PMS_P1;PMS_P2;Temp;Humidity;BMP_temperature;BMP_pressure;BME280_temperature;BME280_humidity;BME280_pressure;Samples;Min_cycle;Max_cycle;Signal;HPM_P1;HPM_P2
2023/01/15 00:01:37;;;;;;;4.63;1.10;;;;;;;7.59;100.00;98443.84;5041006;28;20486;-65
2023/01/15 00:04:05;;;;;;;2.10;1.40;;;;;;;7.52;100.00;98451.66;5040611;28;20545;-65
2023/01/15 00:06:34;;;;;;;3.30;1.00;;;;;;;7.23;100.00;98456.59;5023529;28;20490;-65
2023/01/15 00:09:01;;;;;;;2.80;1.20;;;;;;;7.09;100.00;98458.91;5030610;28;20477;-65
2023/01/15 00:11:28;;;;;;;3.33;1.30;;;;;;;7.08;100.00;98451.94;5030326;28;20505;-64
2023/01/15 00:13:55;;;;;;;1.67;1.17;;;;;;;7.08;100.00;98469.69;5043344;28;20481;-65
2023/01/15 00:16:23;;;;;;;2.10;1.03;;;;;;;7.08;100.00;98472.34;5032296;28;20447;-65
2023/01/15 00:18:52;;;;;;;2.23;0.97;;;;;;;6.81;100.00;98474.25;5024047;28;20537;-66
2023/01/15 00:21:18;;;;;;;2.83;0.70;;;;;;;6.69;100.00;98459.59;5023353;28;20510;-66
2023/01/15 00:29:16;;;;;;;2.50;0.80;;;;;;;6.30;100.00;98484.81;5042357;28;20417;-66
2023/01/15 00:31:43;;;;;;;2.10;0.90;;;;;;;6.26;100.00;98485.28;5041213;28;20506;-65
2023/01/15 00:34:11;;;;;;;1.50;1.00;;;;;;;6.06;100.00;98505.84;5032328;28;20453;-65
2023/01/15 00:36:39;;;;;;;1.00;0.60;;;;;;;6.12;100.00;98499.94;5035255;28;20497;-65
2023/01/15 00:39:05;;;;;;;1.50;0.70;;;;;;;6.18;100.00;98508.13;5022950;28;20475;-65
2023/01/15 00:41:32;;;;;;;1.03;0.77;;;;;;;5.99;100.00;98506.47;5024841;28;20509;-65
2023/01/15 00:43:59;;;;;;;1.73;0.90;;;;;;;6.04;100.00;98527.22;5023023;28;20447;-65
2023/01/15 00:46:26;;;;;;;1.10;0.90;;;;;;;6.08;100.00;98528.59;5037273;28;20490;-64
2023/01/15 00:48:52;;;;;;;0.40;0.40;;;;;;;5.70;100.00;98524.44;5029861;28;20513;-65
2023/01/15 00:51:21;;;;;;;0.93;0.50;;;;;;;5.77;100.00;98528.16;5040019;28;20834;-64
2023/01/15 00:53:47;;;;;;;1.27;0.80;;;;;;;5.57;100.00;98530.97;5022905;28;20443;-64
2023/01/15 00:56:14;;;;;;;0.97;0.53;;;;;;;5.59;100.00;98534.28;5035540;28;20478;-64
2023/01/15 00:58:41;;;;;;;2.93;1.30;;;;;;;5.47;100.00;98546.09;5026779;28;20515;-64
2023/01/15 01:01:08;;;;;;;0.90;0.60;;;;;;;5.51;100.00;98534.19;5023947;28;20478;-64
2023/01/15 01:03:34;;;;;;;3.50;0.83;;;;;;;5.51;100.00;98533.38;5028998;28;20461;-64
2023/01/15 01:06:02;;;;;;;1.47;1.10;;;;;;;5.45;100.00;98548.03;5024739;28;20498;-65
2023/01/15 01:08:30;;;;;;;1.90;0.70;;;;;;;5.47;100.00;98546.09;5024524;28;20455;-65
2023/01/15 01:11:04;;;;;;;2.00;0.50;;;;;;;5.58;100.00;98551.16;5031701;28;20494;-65
2023/01/15 01:13:31;;;;;;;1.77;0.73;;;;;;;5.48;100.00;98547.75;5022151;28;20545;-64
2023/01/15 01:15:57;;;;;;;0.80;0.77;;;;;;;5.43;100.00;98557.97;5032243;28;20482;-65
2023/01/15 01:18:24;;;;;;;1.23;0.50;;;;;;;5.34;100.00;98558.88;5034872;28;20494;-64
2023/01/15 01:20:51;;;;;;;1.37;1.03;;;;;;;5.30;100.00;98554.84;5032000;28;20562;-65
2023/01/15 01:23:18;;;;;;;2.20;0.70;;;;;;;5.22;100.00;98550.28;5027470;28;20474;-65
2023/01/15 01:25:46;;;;;;;3.17;0.70;;;;;;;5.23;100.00;98550.16;5031476;28;20541;-65
2023/01/15 01:28:12;;;;;;;1.90;0.70;;;;;;;5.21;100.00;98544.16;5022372;28;20447;-64
2023/01/15 01:30:40;;;;;;;3.67;0.70;;;;;;;5.20;100.00;98536.34;5034544;28;20500;-65
2023/01/15 01:33:07;;;;;;;2.80;0.50;;;;;;;5.37;100.00;98534.72;5033103;28;20482;-66
2023/01/15 01:35:33;;;;;;;1.53;0.57;;;;;;;5.26;100.00;98517.22;5025084;28;20474;-65
2023/01/15 01:38:00;;;;;;;2.03;0.80;;;;;;;5.19;100.00;98519.63;5039190;28;20481;-65
2023/01/15 01:40:26;;;;;;;1.20;1.10;;;;;;;5.22;100.00;98521.97;5023171;28;20486;-66
2023/01/15 01:42:54;;;;;;;2.47;0.90;;;;;;;5.27;100.00;98535.59;5022151;28;20491;-66
2023/01/15 01:45:24;;;;;;;2.00;0.93;;;;;;;5.39;100.00;98532.75;5036409;28;20514;-65
2023/01/15 01:47:51;;;;;;;0.93;0.70;;;;;;;5.27;100.00;98534.78;5025194;28;20455;-66
2023/01/15 01:50:18;;;;;;;0.70;0.70;;;;;;;5.24;100.00;98546.53;5027840;28;21014;-66
2023/01/15 01:52:47;;;;;;;3.57;0.90;;;;;;;5.28;100.00;98539.94;5032886;28;20477;-65
2023/01/15 01:55:16;;;;;;;1.60;0.57;;;;;;;5.36;100.00;98533.88;5040889;28;20485;-66
2023/01/15 01:57:42;;;;;;;1.20;0.70;;;;;;;5.17;100.00;98523.41;5038310;28;20458;-65
2023/01/15 02:00:14;;;;;;;1.40;0.73;;;;;;;5.07;100.00;98531.44;5035539;28;20529;-65
2023/01/15 02:02:41;;;;;;;0.90;0.73;;;;;;;5.13;100.00;98530.81;5024532;28;20482;-65
2023/01/15 02:05:08;;;;;;;3.23;1.70;;;;;;;5.21;100.00;98527.44;5025412;28;20479;-66
2023/01/15 02:07:35;;;;;;;1.27;0.77;;;;;;;5.04;100.00;98532.53;5028477;28;20471;-64
2023/01/15 02:10:02;;;;;;;1.67;0.90;;;;;;;5.13;100.00;98540.59;5034493;28;20478;-65
2023/01/15 02:12:32;;;;;;;3.53;1.00;;;;;;;5.15;100.00;98525.38;5035740;28;20499;-64
2023/01/15 02:15:04;;;;;;;1.37;0.80;;;;;;;5.19;100.00;98519.63;5022147;28;20466;-65
2023/01/15 02:17:35;;;;;;;0.87;0.60;;;;;;;5.19;100.00;98519.63;5032434;28;20497;-65
2023/01/15 02:20:17;;;;;;;0.90;0.90;;;;;;;5.27;100.00;98521.53;5020690;28;21042;-65
2023/01/15 02:22:55;;;;;;;3.10;0.90;;;;;;;5.20;100.00;98512.50;5021301;28;20475;-66
2023/01/15 02:25:27;;;;;;;0.87;0.80;;;;;;;5.23;100.00;98504.28;5021040;28;20963;-66
2023/01/15 02:27:59;;;;;;;0.93;0.83;;;;;;;5.34;100.00;98516.47;5020033;28;20499;-65
2023/01/15 02:30:29;;;;;;;2.30;1.10;;;;;;;5.26;100.00;98512.75;5026685;28;20447;-65
2023/01/15 02:32:59;;;;;;;3.53;0.90;;;;;;;5.39;100.00;98517.69;5023355;28;20453;-65
2023/01/15 02:35:29;;;;;;;1.17;0.77;;;;;;;5.37;100.00;98505.56;5022862;28;20565;-66
2023/01/15 02:37:59;;;;;;;1.97;0.83;;;;;;;5.32;100.00;98510.50;5040135;28;20458;-67
2023/01/15 02:40:26;;;;;;;1.33;1.20;;;;;;;5.35;100.00;98511.03;5020253;28;20507;-66
2023/01/15 02:42:56;;;;;;;1.40;0.90;;;;;;;5.37;100.00;98508.22;5010069;28;20481;-66
2023/01/15 02:45:26;;;;;;;2.47;0.93;;;;;;;5.40;100.00;98502.59;5032657;28;20446;-66
2023/01/15 02:47:54;;;;;;;1.43;1.00;;;;;;;5.38;100.00;98499.28;5020858;28;20482;-66
2023/01/15 02:50:26;;;;;;;0.90;0.90;;;;;;;5.31;100.00;98495.56;5019035;28;20491;-65
2023/01/15 02:52:56;;;;;;;3.83;1.37;;;;;;;5.26;100.00;98510.09;5027304;28;21209;-65
2023/01/15 02:55:26;;;;;;;5.60;1.40;;;;;;;5.32;100.00;98505.19;5020702;28;20450;-65
2023/01/15 02:57:57;;;;;;;3.93;1.00;;;;;;;5.35;100.00;98505.72;5036435;28;20458;-67
2023/01/15 03:00:25;;;;;;;2.00;1.00;;;;;;;5.35;100.00;98507.56;5032810;28;20513;-66
2023/01/15 03:02:58;;;;;;;1.83;1.20;;;;;;;5.35;100.00;98500.44;5027727;28;20547;-67
2023/01/15 03:05:27;;;;;;;3.90;1.00;;;;;;;5.52;100.00;98503.22;5023950;28;20457;-68
2023/01/15 03:07:56;;;;;;;2.07;0.93;;;;;;;5.39;100.00;98496.47;5035383;28;20934;-68
2023/01/15 03:10:29;;;;;;;1.00;0.87;;;;;;;5.45;100.00;98492.38;5027555;28;20956;-68
2023/01/15 03:13:06;;;;;;;1.23;1.13;;;;;;;5.39;100.00;98500.94;5019402;28;20484;-68
2023/01/15 03:18:28;;;;;;;1.13;0.93;;;;;;;5.53;100.00;98495.13;5017426;28;20458;-67
2023/01/15 03:20:57;;;;;;;1.97;1.40;;;;;;;5.55;100.00;98502.94;5039584;28;20501;-66
2023/01/15 03:23:26;;;;;;;1.17;0.97;;;;;;;5.47;100.00;98490.44;5025416;28;20466;-67
2023/01/15 03:25:53;;;;;;;2.73;1.10;;;;;;;5.59;100.00;98496.31;5037825;28;20590;-66
2023/01/15 03:28:24;;;;;;;2.20;1.33;;;;;;;5.52;100.00;98485.53;5025963;28;20483;-66
2023/01/15 03:30:51;;;;;;;1.60;1.37;;;;;;;5.48;100.00;98473.53;5020452;28;20481;-67
2023/01/15 03:33:18;;;;;;;3.33;1.43;;;;;;;5.52;100.00;98489.97;5026931;28;20465;-67
2023/01/15 03:35:48;;;;;;;1.97;1.20;;;;;;;5.61;100.00;98492.56;5020394;28;20506;-67
2023/01/15 03:38:17;;;;;;;1.83;1.57;;;;;;;5.51;100.00;98477.72;5033353;28;20486;-67
2023/01/15 03:40:50;;;;;;;1.60;1.13;;;;;;;5.64;100.00;98475.50;5026015;28;20510;-67
2023/01/15 03:46:19;;;;;;;1.50;1.40;;;;;;;5.57;100.00;98475.28;5020700;28;20481;-66
2023/01/15 03:48:51;;;;;;;1.47;1.17;;;;;;;5.50;100.00;98460.97;5020523;28;20458;-66
2023/01/15 03:51:22;;;;;;;2.57;1.30;;;;;;;5.54;100.00;98451.75;5019835;28;20494;-67
2023/01/15 03:53:51;;;;;;;2.00;1.00;;;;;;;5.65;100.00;98448.81;5024409;28;20939;-67
2023/01/15 03:56:22;;;;;;;2.40;1.40;;;;;;;5.59;100.00;98454.75;5038938;28;20480;-67
2023/01/15 03:58:53;;;;;;;3.20;1.40;;;;;;;5.57;100.00;98448.78;5025936;28;20455;-67
2023/01/15 04:01:23;;;;;;;3.40;1.50;;;;;;;5.61;100.00;98454.63;5020068;28;20562;-66
2023/01/15 04:03:50;;;;;;;1.93;1.20;;;;;;;5.57;100.00;98455.88;5036327;28;20468;-66
2023/01/15 04:06:18;;;;;;;3.13;2.30;;;;;;;5.63;100.00;98453.47;5026511;28;20479;-66
2023/01/15 04:08:45;;;;;;;6.10;1.83;;;;;;;5.60;100.00;98474.97;5035187;28;20485;-66
2023/01/15 04:11:12;;;;;;;4.20;1.30;;;;;;;5.73;100.00;98465.78;5032522;28;20474;-64
2023/01/15 04:13:38;;;;;;;3.77;1.27;;;;;;;5.58;100.00;98458.38;5043745;28;20556;-64
2023/01/15 04:16:08;;;;;;;5.57;2.03;;;;;;;5.63;100.00;98445.50;5027605;28;20470;-65
2023/01/15 04:18:35;;;;;;;7.90;1.60;;;;;;;5.72;100.00;98450.88;5031788;28;20462;-66
2023/01/15 04:21:01;;;;;;;5.57;1.47;;;;;;;5.66;100.00;98458.47;5023218;28;20533;-66
2023/01/15 04:23:28;;;;;;;3.07;1.70;;;;;;;5.68;100.00;98452.16;5026015;28;20530;-66
2023/01/15 04:25:54;;;;;;;5.87;1.67;;;;;;;5.61;100.00;98458.09;5029207;28;20474;-67
2023/01/15 04:28:21;;;;;;;1.73;1.40;;;;;;;5.64;100.00;98448.97;5040709;28;20500;-67
2023/01/15 04:30:48;;;;;;;5.73;1.47;;;;;;;5.71;100.00;98451.84;5034800;28;21069;-65
2023/01/15 04:33:16;;;;;;;3.60;1.37;;;;;;;5.71;100.00;98452.72;5022783;28;20443;-64
2023/01/15 04:35:43;;;;;;;5.90;1.53;;;;;;;5.70;100.00;98448.38;5022126;28;20511;-65
2023/01/15 04:38:10;;;;;;;3.23;1.50;;;;;;;5.72;100.00;98450.88;5023421;28;20457;-67
2023/01/15 04:46:04;;;;;;;3.80;1.20;;;;;;;5.74;100.00;98435.66;5031066;28;20494;-67
2023/01/15 04:48:32;;;;;;;4.77;1.63;;;;;;;5.73;100.00;98455.19;5041821;28;20895;-67
2023/01/15 04:51:02;;;;;;;4.07;1.30;;;;;;;5.88;100.00;98450.16;5035419;28;20506;-67
2023/01/15 04:53:29;;;;;;;6.80;1.50;;;;;;;5.84;100.00;98452.28;5023958;28;20490;-67
2023/01/15 04:56:00;;;;;;;7.27;1.03;;;;;;;5.78;100.00;98444.94;5022758;28;20490;-66
2023/01/15 04:58:26;;;;;;;4.17;1.47;;;;;;;5.81;100.00;98448.13;5028001;28;20481;-66
2023/01/15 05:00:53;;;;;;;9.30;1.47;;;;;;;5.70;100.00;98443.06;5032272;28;20499;-66
2023/01/15 05:03:20;;;;;;;5.40;1.40;;;;;;;5.76;100.00;98455.69;5039601;28;20442;-66
2023/01/15 05:05:49;;;;;;;4.03;1.20;;;;;;;5.80;100.00;98450.94;5037524;28;20501;-67
2023/01/15 05:08:16;;;;;;;3.80;1.03;;;;;;;5.91;100.00;98463.94;5041659;28;20488;-66
2023/01/15 05:10:42;;;;;;;5.43;1.23;;;;;;;5.93;100.00;98464.63;5027659;28;20502;-64
2023/01/15 05:13:09;;;;;;;2.03;1.30;;;;;;;5.79;100.00;98451.94;5025236;28;20524;-65
2023/01/15 05:15:37;;;;;;;4.67;1.20;;;;;;;5.79;100.00;98462.53;5021642;28;20470;-65
2023/01/15 05:18:04;;;;;;;4.37;2.37;;;;;;;5.75;100.00;98464.66;5027438;28;20455;-65
2023/01/15 05:20:30;;;;;;;4.13;1.47;;;;;;;5.78;100.00;98464.34;5030525;28;20466;-64
2023/01/15 05:22:58;;;;;;;4.80;1.70;;;;;;;5.71;100.00;98457.16;5025513;28;20471;-65
2023/01/15 05:25:25;;;;;;;6.23;1.70;;;;;;;5.73;100.00;98456.03;5029391;28;20443;-65
2023/01/15 05:27:52;;;;;;;4.57;1.57;;;;;;;5.72;100.00;98469.44;5030125;28;20459;-65
2023/01/15 05:30:19;;;;;;;3.23;1.30;;;;;;;5.74;100.00;98460.34;5031835;28;20488;-65
2023/01/15 05:32:45;;;;;;;2.70;1.30;;;;;;;5.68;100.00;98460.97;5033418;28;20510;-65
2023/01/15 05:35:12;;;;;;;4.13;1.27;;;;;;;5.76;100.00;98465.47;5023375;28;20506;-65
2023/01/15 05:37:38;;;;;;;7.10;1.37;;;;;;;5.76;100.00;98466.31;5031961;28;20475;-65
2023/01/15 05:40:08;;;;;;;1.83;1.17;;;;;;;5.83;100.00;98464.72;5018443;28;20510;-66
2023/01/15 05:42:35;;;;;;;3.53;1.10;;;;;;;5.76;100.00;98468.97;5024747;28;20921;-66
2023/01/15 05:45:02;;;;;;;3.70;1.23;;;;;;;5.88;100.00;98485.47;5026073;28;20735;-66
2023/01/15 05:47:28;;;;;;;7.17;3.00;;;;;;;5.77;100.00;98477.78;5036797;28;20818;-66
2023/01/15 05:49:55;;;;;;;9.30;1.50;;;;;;;5.77;100.00;98480.41;5037869;28;20970;-65
2023/01/15 05:52:22;;;;;;;4.03;1.03;;;;;;;5.88;100.00;98469.56;5033914;28;20503;-65
2023/01/15 05:54:49;;;;;;;2.93;1.07;;;;;;;5.75;100.00;98466.50;5010515;28;20466;-65
2023/01/15 05:57:17;;;;;;;7.73;2.70;;;;;;;5.88;100.00;98482.81;5032434;28;21270;-65
2023/01/15 05:59:44;;;;;;;5.57;1.43;;;;;;;5.77;100.00;98488.38;5040502;28;20506;-65
2023/01/15 06:02:10;;;;;;;3.23;1.40;;;;;;;5.88;100.00;98490.78;5032240;28;20475;-65
2023/01/15 06:04:37;;;;;;;4.87;1.27;;;;;;;5.89;100.00;98492.44;5021537;28;20904;-65
2023/01/15 06:07:04;;;;;;;3.73;1.30;;;;;;;5.83;100.00;98490.41;5039340;28;20505;-64
2023/01/15 06:09:30;;;;;;;7.30;1.63;;;;;;;5.75;100.00;98485.06;5022964;28;20874;-65
2023/01/15 06:11:57;;;;;;;4.10;2.53;;;;;;;5.69;100.00;98481.16;5023891;28;20474;-64
2023/01/15 06:14:25;;;;;;;4.40;1.43;;;;;;;5.93;100.00;98504.41;5035104;28;20506;-65
2023/01/15 06:16:52;;;;;;;3.37;1.30;;;;;;;5.98;100.00;98496.84;5029908;28;20498;-65
2023/01/15 06:19:18;;;;;;;6.43;2.10;;;;;;;5.78;100.00;98490.03;5009534;28;20522;-65
2023/01/15 06:21:45;;;;;;;3.10;2.00;;;;;;;5.79;100.00;98487.22;5006277;28;20521;-65
2023/01/15 06:24:15;;;;;;;5.40;1.40;;;;;;;5.82;100.00;98481.63;5041698;28;21066;-64
2023/01/15 06:26:41;;;;;;;4.77;1.40;;;;;;;5.82;100.00;98475.50;5029032;28;21164;-64
2023/01/15 06:29:08;;;;;;;4.43;1.20;;;;;;;5.89;100.00;98484.50;5036308;28;20502;-65
2023/01/15 06:31:36;;;;;;;3.30;1.30;;;;;;;5.82;100.00;98488.75;5021675;28;20553;-66
2023/01/15 06:34:03;;;;;;;5.10;1.90;;;;;;;5.81;100.00;98495.84;5040694;28;20473;-66
2023/01/15 06:36:29;;;;;;;6.10;1.57;;;;;;;5.80;100.00;98488.91;5015411;28;20490;-64
2023/01/15 06:38:56;;;;;;;4.83;1.60;;;;;;;5.85;100.00;98485.81;5029592;28;20487;-64
2023/01/15 06:49:41;;;;;;;2.30;1.33;;;;;;;5.80;100.00;98488.06;5001299;28;20415;-66
2023/01/15 06:52:08;;;;;;;4.23;1.60;;;;;;;5.66;100.00;98494.75;5015723;28;20490;-63
2023/01/15 06:54:35;;;;;;;2.90;1.50;;;;;;;5.74;100.00;98491.31;5020101;28;20478;-64
2023/01/15 06:57:01;;;;;;;4.37;1.30;;;;;;;5.69;100.00;98481.16;5025986;28;20479;-66
2023/01/15 06:59:28;;;;;;;4.77;1.70;;;;;;;5.72;100.00;98499.44;5038187;28;20478;-65
2023/01/15 07:01:56;;;;;;;5.80;1.20;;;;;;;5.73;100.00;98479.03;5038612;28;20544;-65
2023/01/15 07:04:23;;;;;;;8.70;2.10;;;;;;;5.75;100.00;98493.00;5028341;28;21154;-65
2023/01/15 07:06:50;;;;;;;7.03;1.70;;;;;;;5.64;100.00;98489.59;5023234;28;20482;-65
2023/01/15 07:09:16;;;;;;;3.27;1.47;;;;;;;5.61;100.00;98489.06;5021309;28;21139;-65
2023/01/15 07:11:49;;;;;;;6.03;1.60;;;;;;;5.68;100.00;98486.63;5023798;28;20509;-65
2023/01/15 07:14:16;;;;;;;1.63;1.10;;;;;;;5.63;100.00;98481.78;5020689;28;21002;-64
2023/01/15 07:16:43;;;;;;;7.50;1.90;;;;;;;5.68;100.00;98495.44;5023961;28;20514;-64
2023/01/15 07:19:11;;;;;;;4.43;1.40;;;;;;;5.72;100.00;98496.78;5021341;28;20553;-65
2023/01/15 07:21:38;;;;;;;7.60;1.60;;;;;;;5.77;100.00;98498.97;5021502;28;20726;-65
2023/01/15 07:24:05;;;;;;;3.73;1.40;;;;;;;5.71;100.00;98486.31;5028248;28;20900;-65
2023/01/15 07:26:32;;;;;;;3.80;1.60;;;;;;;5.80;100.00;98491.56;5020872;28;20486;-65
2023/01/15 07:28:59;;;;;;;2.13;1.10;;;;;;;5.83;100.00;98498.34;5027819;28;20967;-65
2023/01/15 07:31:26;;;;;;;4.70;2.00;;;;;;;5.96;100.00;98490.88;5037628;28;20669;-65
2023/01/15 07:33:52;;;;;;;3.30;1.60;;;;;;;5.84;100.00;98497.38;5026858;28;20446;-62
2023/01/15 07:36:20;;;;;;;6.23;1.80;;;;;;;5.85;100.00;98489.28;5026900;28;20510;-62
2023/01/15 07:38:47;;;;;;;11.73;1.90;;;;;;;5.81;100.00;98477.28;5023865;28;20494;-63
2023/01/15 07:52:12;;;;;;;7.07;2.40;;;;;;;5.82;100.00;98489.56;5028010;28;20621;-60
2023/01/15 07:54:38;;;;;;;4.73;2.23;;;;;;;5.96;100.00;98500.66;5024923;28;20443;-60
2023/01/15 07:57:05;;;;;;;7.17;1.90;;;;;;;5.95;100.00;98489.16;5023385;28;20510;-60
2023/01/15 07:59:32;;;;;;;2.77;1.53;;;;;;;6.00;100.00;98488.75;5023717;28;20661;-60
2023/01/15 08:01:59;;;;;;;8.97;1.80;;;;;;;5.94;100.00;98487.50;5040265;28;20513;-60
2023/01/15 08:04:25;;;;;;;7.57;2.20;;;;;;;5.98;100.00;98491.53;5036521;28;20451;-60
2023/01/15 08:06:52;;;;;;;3.93;1.40;;;;;;;5.96;100.00;98504.13;5023600;28;20482;-60
2023/01/15 08:09:20;;;;;;;4.13;1.90;;;;;;;5.91;100.00;98511.69;5023315;28;20918;-60
2023/01/15 08:17:14;;;;;;;2.70;1.77;;;;;;;6.04;100.00;98500.69;5022142;28;20525;-60
2023/01/15 08:19:41;;;;;;;9.97;2.90;;;;;;;5.98;100.00;98496.84;5022823;28;20484;-62
2023/01/15 08:22:10;;;;;;;7.53;2.33;;;;;;;6.04;100.00;98503.34;5027130;28;20494;-63
2023/01/15 08:24:38;;;;;;;5.73;1.93;;;;;;;6.07;100.00;98505.69;5023870;28;20511;-62
2023/01/15 08:27:05;;;;;;;6.40;1.70;;;;;;;6.13;100.00;98506.94;5022663;28;21045;-62
2023/01/15 08:29:32;;;;;;;12.60;3.37;;;;;;;6.08;100.00;98498.59;5023761;28;20528;-62
2023/01/15 08:31:59;;;;;;;4.10;2.40;;;;;;;6.29;100.00;98520.28;5022812;28;20486;-62
2023/01/15 08:34:25;;;;;;;5.10;1.63;;;;;;;6.15;100.00;98507.59;5024133;28;20442;-63
2023/01/15 08:36:58;;;;;;;6.20;1.70;;;;;;;6.27;100.00;98514.31;5023446;28;20510;-63
2023/01/15 08:39:25;;;;;;;3.27;1.80;;;;;;;6.34;100.00;98515.34;5031592;28;20472;-62
2023/01/15 08:41:53;;;;;;;6.17;2.03;;;;;;;6.15;100.00;98513.72;5042114;28;20482;-59
2023/01/15 08:44:22;;;;;;;7.67;2.63;;;;;;;6.40;100.00;98524.50;5009710;28;20603;-61
2023/01/15 08:46:49;;;;;;;5.53;2.23;;;;;;;6.38;100.00;98511.38;5027169;28;20479;-61
2023/01/15 08:49:16;;;;;;;7.50;1.50;;;;;;;6.41;100.00;98510.25;5022328;28;20459;-61
2023/01/15 08:51:44;;;;;;;9.30;1.90;;;;;;;6.37;99.27;98515.03;5022121;28;21004;-60
2023/01/15 08:54:11;;;;;;;3.30;1.47;;;;;;;6.47;97.60;98512.25;5023004;28;20452;-61
2023/01/15 08:56:38;;;;;;;3.90;1.60;;;;;;;6.38;93.98;98508.72;5021447;28;20494;-61
2023/01/15 08:59:07;;;;;;;4.50;1.73;;;;;;;6.41;95.01;98526.19;5021936;28;20517;-61
2023/01/15 09:01:34;;;;;;;3.60;1.47;;;;;;;6.37;92.99;98522.16;5022119;28;20483;-60
2023/01/15 09:04:01;;;;;;;3.83;1.77;;;;;;;6.37;91.42;98514.19;5023125;28;20435;-61
2023/01/15 09:06:28;;;;;;;2.23;1.23;;;;;;;6.40;91.47;98533.28;5021883;28;20926;-61
2023/01/15 09:08:54;;;;;;;5.23;1.70;;;;;;;6.47;91.05;98536.16;5022802;28;20883;-61
2023/01/15 09:11:21;;;;;;;4.77;1.93;;;;;;;6.34;91.39;98527.78;5022041;28;20475;-61
2023/01/15 09:13:50;;;;;;;2.63;1.50;;;;;;;6.33;91.86;98524.28;5022828;28;20479;-61
2023/01/15 09:16:18;;;;;;;3.27;1.53;;;;;;;6.54;92.80;98533.72;5021513;28;20521;-61
2023/01/15 09:18:44;;;;;;;2.80;1.73;;;;;;;6.22;92.81;98532.53;5021576;28;20474;-61
2023/01/15 09:21:11;;;;;;;5.07;1.80;;;;;;;5.97;94.68;98537.66;5021381;28;20771;-61
2023/01/15 09:23:38;;;;;;;2.90;1.57;;;;;;;5.94;95.86;98537.91;5022860;28;20466;-61
2023/01/15 09:26:07;;;;;;;8.40;1.73;;;;;;;6.10;95.33;98541.72;5016390;28;20486;-60
2023/01/15 09:28:34;;;;;;;2.40;1.20;;;;;;;5.84;96.34;98537.16;5020774;28;20525;-60
2023/01/15 09:31:01;;;;;;;8.90;2.50;;;;;;;5.95;97.28;98550.16;5022171;28;20562;-59
2023/01/15 09:33:29;;;;;;;5.63;1.67;;;;;;;5.98;97.88;98554.38;5021595;28;20447;-58
2023/01/15 09:35:56;;;;;;;9.90;2.13;;;;;;;6.07;98.30;98553.44;5020022;28;20467;-58
2023/01/15 09:38:23;;;;;;;4.97;1.60;;;;;;;5.88;98.28;98535.84;5016435;28;20497;-58
2023/01/15 09:40:54;;;;;;;6.80;1.70;;;;;;;5.88;98.42;98540.34;5019587;28;20538;-58
2023/01/15 09:43:39;;;;;;;6.20;1.67;;;;;;;6.01;98.55;98543.47;5020323;28;20454;-57
2023/01/15 09:46:11;;;;;;;6.30;1.50;;;;;;;5.85;97.80;98534.34;5020164;28;20502;-58
2023/01/15 09:48:46;;;;;;;5.00;1.60;;;;;;;6.13;98.00;98558.16;5013409;28;20502;-58
2023/01/15 09:51:19;;;;;;;6.43;1.93;;;;;;;6.13;97.73;98552.03;5017003;28;20501;-58
2023/01/15 09:54:04;;;;;;;2.50;1.40;;;;;;;6.10;97.55;98542.53;5021377;28;20454;-58
2023/01/15 09:56:32;;;;;;;8.87;1.67;;;;;;;6.00;98.24;98549.75;5019940;28;20479;-60
2023/01/15 09:59:00;;;;;;;6.10;1.90;;;;;;;6.28;96.98;98544.31;5016550;28;20463;-60
2023/01/15 10:01:29;;;;;;;4.13;1.93;;;;;;;6.43;95.75;98550.75;5019010;28;20502;-59
2023/01/15 10:04:01;;;;;;;7.77;1.73;;;;;;;6.21;96.35;98546.75;5020000;28;20439;-60
2023/01/15 10:06:30;;;;;;;9.87;1.67;;;;;;;6.25;96.51;98545.47;5020362;28;21083;-60
2023/01/15 10:09:03;;;;;;;2.27;1.70;;;;;;;6.82;93.94;98533.53;5020924;28;20474;-60
2023/01/15 10:14:38;;;;;;;5.07;1.43;;;;;;;7.85;84.11;98539.47;5026460;28;20474;-61
2023/01/15 10:17:09;;;;;;;5.07;1.43;;;;;;;8.36;82.11;98538.44;5014188;28;20883;-61
2023/01/15 10:19:37;;;;;;;6.20;1.90;;;;;;;9.30;76.86;98523.50;5019971;28;20451;-61
2023/01/15 10:22:07;;;;;;;5.33;1.50;;;;;;;9.39;73.65;98540.28;5026469;28;21151;-61
2023/01/15 10:24:38;;;;;;;3.33;1.50;;;;;;;9.17;72.20;98529.41;5020575;28;20537;-60
2023/01/15 10:27:13;;;;;;;7.93;1.80;;;;;;;9.50;70.61;98534.56;5024114;28;20824;-60
2023/01/15 10:29:44;;;;;;;5.40;2.00;;;;;;;10.36;65.88;98531.75;5002259;28;20457;-60
2023/01/15 10:32:22;;;;;;;3.37;1.43;;;;;;;9.67;66.51;98532.63;5021719;28;20506;-60
2023/01/15 10:35:26;;;;;;;6.70;1.83;;;;;;;9.05;68.16;98523.63;5021885;28;20455;-60
2023/01/15 10:37:57;;;;;;;4.10;1.80;;;;;;;9.04;69.63;98543.28;4996107;28;20470;-60
2023/01/15 10:40:34;;;;;;;3.63;1.50;;;;;;;9.45;65.79;98534.25;5019529;28;20449;-60
2023/01/15 10:43:07;;;;;;;10.63;1.53;;;;;;;10.09;64.01;98536.66;5018558;28;20464;-60
2023/01/15 10:45:38;;;;;;;5.60;1.33;;;;;;;10.58;60.37;98532.72;5022949;28;21061;-60
2023/01/15 10:48:10;;;;;;;3.90;1.20;;;;;;;9.26;63.43;98524.03;5020821;28;20501;-60
2023/01/15 10:50:38;;;;;;;4.10;1.40;;;;;;;8.91;64.42;98536.84;5029443;28;20525;-60
2023/01/15 10:53:11;;;;;;;4.10;1.60;;;;;;;9.10;66.03;98535.63;5022607;28;20463;-60
2023/01/15 10:55:41;;;;;;;10.43;2.13;;;;;;;9.16;64.09;98533.06;5020838;28;20470;-59
2023/01/15 10:58:12;;;;;;;3.00;1.37;;;;;;;8.09;67.51;98530.66;5019640;28;20459;-60
2023/01/15 11:00:39;;;;;;;3.80;1.30;;;;;;;7.42;71.34;98528.09;5024582;28;20494;-60
2023/01/15 11:03:13;;;;;;;5.83;1.97;;;;;;;7.59;70.96;98530.78;5031538;28;20505;-60
2023/01/15 11:05:41;;;;;;;5.40;2.30;;;;;;;7.69;71.51;98520.81;5019174;28;20467;-60
2023/01/15 11:08:14;;;;;;;2.73;1.17;;;;;;;7.58;70.46;98521.13;5016670;28;20478;-59
2023/01/15 11:10:41;;;;;;;6.57;1.70;;;;;;;7.83;68.45;98529.97;5017949;28;20488;-60
2023/01/15 11:21:51;;;;;;;6.90;1.37;;;;;;;7.75;69.08;98530.81;5022764;28;20482;-59
2023/01/15 11:24:19;;;;;;;2.97;1.70;;;;;;;7.45;70.89;98529.59;5023594;28;20872;-59
2023/01/15 11:26:48;;;;;;;3.40;1.27;;;;;;;7.49;71.32;98534.41;5022810;28;20570;-59
2023/01/15 11:29:20;;;;;;;1.27;0.90;;;;;;;7.29;71.94;98528.56;5026018;28;20452;-59
2023/01/15 11:31:47;;;;;;;5.17;2.13;;;;;;;7.37;71.56;98545.53;5030079;28;20471;-59
2023/01/15 11:34:20;;;;;;;3.37;1.40;;;;;;;7.49;71.74;98533.59;5029737;28;20478;-57
2023/01/15 11:36:47;;;;;;;3.43;1.40;;;;;;;7.13;72.05;98531.16;5025243;28;20486;-59
2023/01/15 11:39:27;;;;;;;3.97;1.13;;;;;;;7.19;72.33;98527.00;5023973;28;20489;-59
2023/01/15 11:53:02;;;;;;;3.57;1.37;;;;;;;7.25;73.50;98511.25;5024552;28;21033;-59
2023/01/15 11:55:30;;;;;;;4.30;1.20;;;;;;;7.46;73.68;98517.97;5029886;28;20469;-59
2023/01/15 11:57:57;;;;;;;5.43;1.40;;;;;;;7.52;74.00;98523.44;5020515;28;21048;-59
2023/01/15 12:00:26;;;;;;;3.80;1.20;;;;;;;7.00;74.61;98514.84;5022794;28;20462;-59
2023/01/15 12:02:55;;;;;;;4.47;1.70;;;;;;;7.05;75.21;98524.00;5021595;28;20960;-59
2023/01/15 12:05:24;;;;;;;3.47;1.43;;;;;;;6.96;75.51;98528.44;5026110;28;20447;-59
2023/01/15 12:07:53;;;;;;;4.47;1.60;;;;;;;7.08;76.95;98530.81;5024358;28;20474;-60
2023/01/15 12:11:02;;;;;;;7.17;1.57;;;;;;;6.87;76.03;98496.69;5021795;28;20454;-60
2023/01/15 12:13:17;;;;;;;6.27;1.53;;;;;;;6.97;75.12;98518.66;5023990;28;20489;-59
2023/01/15 12:15:50;;;;;;;3.20;1.17;;;;;;;6.98;75.44;98509.69;5027526;28;20470;-59
2023/01/15 12:18:38;;;;;;;4.43;1.30;;;;;;;7.10;74.95;98524.34;5032246;28;20451;-59
2023/01/15 12:21:06;;;;;;;3.57;1.47;;;;;;;7.09;74.94;98517.34;5028730;28;20481;-59
2023/01/15 12:23:46;;;;;;;9.83;1.73;;;;;;;7.20;75.28;98513.56;5042054;28;20824;-59
2023/01/15 12:26:17;;;;;;;3.53;1.40;;;;;;;7.59;73.27;98512.19;5032983;28;20477;-59
2023/01/15 12:28:53;;;;;;;4.47;1.53;;;;;;;8.27;70.72;98508.34;5029137;28;20494;-60
2023/01/15 12:31:23;;;;;;;5.67;2.07;;;;;;;7.51;70.06;98500.50;5023183;28;20476;-59
2023/01/15 12:33:52;;;;;;;3.30;1.33;;;;;;;7.59;71.52;98514.84;5041816;28;20442;-59
2023/01/15 12:36:21;;;;;;;6.13;1.37;;;;;;;7.39;72.54;98507.13;5029018;28;20952;-63
2023/01/15 12:38:50;;;;;;;3.33;1.30;;;;;;;7.14;73.47;98500.94;5022183;28;20474;-66
2023/01/15 12:41:21;;;;;;;4.33;2.00;;;;;;;7.15;73.57;98505.25;5020477;28;20533;-60
2023/01/15 12:46:39;;;;;;;5.20;1.73;;;;;;;7.04;73.34;98517.00;5028543;28;20488;-60
2023/01/15 12:49:13;;;;;;;4.17;1.30;;;;;;;6.93;73.85;98523.44;5029766;28;20459;-60
2023/01/15 12:51:47;;;;;;;2.73;1.57;;;;;;;7.09;73.82;98506.72;5041182;28;20497;-60